Honor — WDC6923 — position and weather

sailwx.info

Track history (hours):
 
Tides and Currents Weather Stations Pressure Air Temp Water Temp Dewpoint Dewpoint Depression Visibility Wind Speed Wind Dir Waves Ship Positions

Honor

Owner: TOTE Services, Inc., Jacksonville, FL. More information available from US FCC via Universal Licensing System and Coast Guard Vessel Documentation Center.

Last reported at 2017-Nov-18 00:20 UTC. Time now 2017-Nov-23 05:44 UTC.
Position N 26°19' W 079°30'.

Type: Cargo ship. MMSI: 367063280.

Date/timePositionNaut miles runAvg speedWind from/ knotsBaromVisibWave heightAir tempDewpointWater temp
2017-Nov-18 00:20N 26°19' W 079°30'412.4
2017-Nov-17 23:59N 26°15' W 079°30'612.4
2017-Nov-17 23:30N 26°09' W 079°31'612.3
2017-Nov-17 23:00N 26°03' W 079°32'612.3
2017-Nov-17 22:30N 25°57' W 079°33'612.3
2017-Nov-17 22:00N 25°51' W 079°35'612.8
2017-Nov-17 21:31N 25°44' W 079°35'712.5
2017-Nov-17 20:59N 25°38' W 079°36'612.4
2017-Nov-17 20:29N 25°32' W 079°37'  
2017-Nov-14 06:48N 29°21' W 094°44'3 1.7
2017-Nov-14 04:57N 29°19' W 094°47'0 0.0
2017-Nov-14 01:50N 29°19' W 094°47'  
2017-Nov-10 16:20N 29°02' W 093°35'  
Track history (hours):
 
Tides and Currents Weather Stations Pressure Air Temp Water Temp Dewpoint Dewpoint Depression Visibility Wind Speed Wind Dir Waves Ship Positions

Honor

Owner: TOTE Services, Inc., Jacksonville, FL. More information available from US FCC via Universal Licensing System and Coast Guard Vessel Documentation Center.

Last reported at 2017-Nov-18 00:20 UTC. Time now 2017-Nov-23 05:44 UTC.
Position N 26°19' W 079°30'.

Type: Cargo ship. MMSI: 367063280.

Date/timePositionNaut miles runAvg speedWind from/ knotsBaromVisibWave heightAir tempDewpointWater temp
2017-Nov-18 00:20N 26°19' W 079°30'412.4
2017-Nov-17 23:59N 26°15' W 079°30'612.4
2017-Nov-17 23:30N 26°09' W 079°31'612.3
2017-Nov-17 23:00N 26°03' W 079°32'612.3
2017-Nov-17 22:30N 25°57' W 079°33'612.3
2017-Nov-17 22:00N 25°51' W 079°35'612.8
2017-Nov-17 21:31N 25°44' W 079°35'712.5
2017-Nov-17 20:59N 25°38' W 079°36'612.4
2017-Nov-17 20:29N 25°32' W 079°37'  
2017-Nov-14 06:48N 29°21' W 094°44'3 1.7
2017-Nov-14 04:57N 29°19' W 094°47'0 0.0
2017-Nov-14 01:50N 29°19' W 094°47'  
2017-Nov-10 16:20N 29°02' W 093°35'  

Dump ship's entire track history